createdAt,value
2023-01-19T00:01:44.364Z,71.90
2023-01-19T00:04:12.288Z,71.95
2023-01-19T00:06:40.568Z,71.31
2023-01-19T00:09:09.915Z,70.79
2023-01-19T00:11:37.914Z,70.63
2023-01-19T00:14:06.340Z,70.05
2023-01-19T00:16:34.427Z,70.16
2023-01-19T00:19:02.590Z,70.22
2023-01-19T00:21:30.603Z,69.92
2023-01-19T00:23:58.683Z,69.64
2023-01-19T00:26:28.003Z,70.03
2023-01-19T00:28:55.972Z,70.06
2023-01-19T00:31:23.973Z,70.16
2023-01-19T00:33:54.307Z,70.40
2023-01-19T00:36:22.260Z,70.99
2023-01-19T00:38:50.253Z,70.84
2023-01-19T00:41:18.602Z,70.71
2023-01-19T00:43:46.921Z,70.81
2023-01-19T00:46:14.911Z,71.21
2023-01-19T00:48:42.931Z,71.13
2023-01-19T00:51:10.932Z,71.26
2023-01-19T00:53:38.899Z,71.45
2023-01-19T00:56:07.783Z,71.37
2023-01-19T00:58:35.780Z,70.89
2023-01-19T01:01:05.660Z,70.42
2023-01-19T01:03:34.078Z,71.11
2023-01-19T01:06:03.657Z,70.81
2023-01-19T01:08:31.922Z,70.94
2023-01-19T01:10:59.942Z,70.72
2023-01-19T01:13:28.481Z,70.00
2023-01-19T01:15:57.976Z,70.25
2023-01-19T01:18:27.433Z,70.41
2023-01-19T01:21:02.274Z,70.42
2023-01-19T01:23:30.433Z,70.05
2023-01-19T01:25:58.478Z,70.08
2023-01-19T01:28:26.757Z,69.91
2023-01-19T01:30:55.335Z,69.96
2023-01-19T01:33:40.689Z,69.43
2023-01-19T01:36:11.729Z,70.03
2023-01-19T01:38:40.086Z,70.04
2023-01-19T01:41:08.617Z,70.04
2023-01-19T01:43:47.564Z,69.91
2023-01-19T01:46:17.303Z,69.67
2023-01-19T01:48:50.960Z,69.83
2023-01-19T01:51:25.435Z,70.32
2023-01-19T01:54:03.975Z,70.38
2023-01-19T01:56:36.179Z,69.97
2023-01-19T01:59:08.607Z,69.75
2023-01-19T02:01:54.382Z,69.81
2023-01-19T02:04:24.679Z,69.44
2023-01-19T02:07:11.705Z,69.61
2023-01-19T02:09:56.872Z,69.64
2023-01-19T02:12:43.462Z,70.19
2023-01-19T02:15:20.251Z,70.70
2023-01-19T02:17:48.742Z,70.53
2023-01-19T02:20:17.558Z,71.28
2023-01-19T02:22:52.957Z,70.68
2023-01-19T02:25:22.617Z,71.42
2023-01-19T02:27:51.715Z,70.63
2023-01-19T02:30:20.367Z,70.85
2023-01-19T02:32:48.484Z,71.09
2023-01-19T02:35:17.084Z,70.90
2023-01-19T02:37:46.210Z,71.09
2023-01-19T02:40:16.591Z,71.47
2023-01-19T02:42:49.654Z,71.68
2023-01-19T02:45:21.267Z,71.76
2023-01-19T02:47:51.192Z,71.91
2023-01-19T02:50:39.351Z,72.41
2023-01-19T02:53:20.516Z,72.63
2023-01-19T02:55:55.147Z,72.30
2023-01-19T02:58:34.003Z,72.21
2023-01-19T03:01:12.823Z,73.19
2023-01-19T03:03:53.185Z,72.67
2023-01-19T03:06:34.720Z,72.77
2023-01-19T03:09:06.762Z,73.44
2023-01-19T03:11:40.038Z,73.07
2023-01-19T03:14:13.935Z,73.71
2023-01-19T03:16:45.496Z,73.05
2023-01-19T03:19:20.657Z,73.08
2023-01-19T03:21:51.610Z,72.94
2023-01-19T03:24:22.156Z,73.29
2023-01-19T03:26:56.608Z,73.47
2023-01-19T03:29:29.275Z,73.58
2023-01-19T03:32:01.210Z,73.51
2023-01-19T03:34:30.289Z,73.71
2023-01-19T03:37:03.271Z,73.38
2023-01-19T03:39:32.344Z,73.76
2023-01-19T03:42:04.311Z,74.11
2023-01-19T03:44:35.980Z,73.82
2023-01-19T03:47:05.876Z,73.19
2023-01-19T03:49:35.757Z,73.35
2023-01-19T03:52:03.786Z,73.50
2023-01-19T03:54:32.403Z,74.09
2023-01-19T03:57:00.552Z,73.62
2023-01-19T03:59:28.488Z,73.43
2023-01-19T04:01:57.955Z,72.69
2023-01-19T04:04:26.414Z,72.66
2023-01-19T04:06:54.407Z,72.19
2023-01-19T04:09:22.379Z,72.03
2023-01-19T04:11:50.322Z,72.07
2023-01-19T04:14:18.374Z,71.65
2023-01-19T04:16:46.382Z,71.08
2023-01-19T04:19:15.946Z,70.31
2023-01-19T04:21:44.021Z,70.73
2023-01-19T04:24:12.182Z,70.80
2023-01-19T04:26:40.121Z,70.43
2023-01-19T04:29:08.153Z,70.19
2023-01-19T04:31:37.009Z,70.61
2023-01-19T04:34:05.157Z,70.88
2023-01-19T04:36:34.803Z,70.99
2023-01-19T04:39:05.204Z,70.24
2023-01-19T04:41:33.292Z,70.23
2023-01-19T04:44:01.232Z,69.90
2023-01-19T04:46:29.178Z,69.91
2023-01-19T04:48:57.127Z,71.41
2023-01-19T04:51:25.113Z,72.73
2023-01-19T04:53:54.471Z,73.30
2023-01-19T04:56:23.000Z,72.69
2023-01-19T04:58:50.955Z,72.85
2023-01-19T05:01:19.025Z,71.86
2023-01-19T05:03:47.183Z,71.70
2023-01-19T05:06:15.106Z,71.37
2023-01-19T05:08:45.249Z,70.85
2023-01-19T05:11:14.868Z,72.17
2023-01-19T05:13:42.944Z,74.41
2023-01-19T05:16:11.124Z,74.02
2023-01-19T05:18:39.148Z,73.73
2023-01-19T05:21:09.654Z,73.61
2023-01-19T05:23:37.625Z,73.17
2023-01-19T05:26:06.207Z,73.37
2023-01-19T05:28:35.652Z,72.85
2023-01-19T05:31:03.748Z,72.51
2023-01-19T05:33:32.469Z,71.75
2023-01-19T05:36:00.445Z,72.46
2023-01-19T05:38:35.442Z,72.67
2023-01-19T05:41:03.959Z,72.45
2023-01-19T05:43:32.028Z,72.15
2023-01-19T05:46:01.394Z,72.63
2023-01-19T05:48:29.374Z,72.94
2023-01-19T05:51:00.393Z,74.37
2023-01-19T05:53:29.363Z,75.03
2023-01-19T05:56:01.384Z,74.07
2023-01-19T05:58:29.562Z,73.86
2023-01-19T06:00:57.715Z,72.89
2023-01-19T06:03:27.139Z,72.67
2023-01-19T06:05:58.064Z,73.13
2023-01-19T06:08:26.288Z,72.85
2023-01-19T06:10:54.250Z,72.47
2023-01-19T06:13:22.670Z,73.22
2023-01-19T06:15:50.634Z,73.34
2023-01-19T06:18:18.611Z,73.34
2023-01-19T06:20:48.029Z,72.82
2023-01-19T06:23:16.011Z,72.39
2023-01-19T06:25:44.000Z,72.19
2023-01-19T06:28:11.938Z,72.25
2023-01-19T06:30:40.538Z,71.47
2023-01-19T06:33:08.645Z,71.50
2023-01-19T06:35:36.957Z,71.63
2023-01-19T06:38:08.814Z,71.46
2023-01-19T06:40:36.809Z,71.25
2023-01-19T06:43:04.927Z,70.74
2023-01-19T06:45:33.076Z,70.71
2023-01-19T06:48:01.079Z,70.92
2023-01-19T06:50:29.353Z,70.83
2023-01-19T06:52:57.420Z,71.63
2023-01-19T06:55:27.977Z,71.49
2023-01-19T06:57:59.189Z,71.32
2023-01-19T07:00:27.714Z,71.24
2023-01-19T07:02:55.784Z,70.92
2023-01-19T07:05:24.527Z,71.03
2023-01-19T07:07:53.814Z,70.44
2023-01-19T07:10:22.190Z,71.11
2023-01-19T07:12:51.843Z,70.72
2023-01-19T07:15:22.700Z,70.59
2023-01-19T07:17:50.833Z,70.16
2023-01-19T07:20:19.799Z,69.97
2023-01-19T07:22:48.933Z,69.92
2023-01-19T07:25:16.940Z,69.79
2023-01-19T07:27:45.153Z,69.75
2023-01-19T07:30:16.294Z,69.70
2023-01-19T07:32:44.348Z,70.06
2023-01-19T07:35:12.336Z,69.79
2023-01-19T07:37:40.404Z,69.99
2023-01-19T07:40:09.529Z,70.25
2023-01-19T07:42:38.128Z,70.66
2023-01-19T07:45:07.040Z,70.20
2023-01-19T07:47:36.488Z,70.05
2023-01-19T07:50:04.680Z,69.87
2023-01-19T07:52:32.715Z,69.38
2023-01-19T07:55:00.646Z,69.64
2023-01-19T07:57:28.714Z,69.30
2023-01-19T07:59:57.000Z,68.92
2023-01-19T08:02:25.607Z,69.01
2023-01-19T08:04:55.329Z,68.87
2023-01-19T08:07:23.354Z,68.44
2023-01-19T08:09:51.410Z,68.38
2023-01-19T08:12:19.675Z,68.60
2023-01-19T08:14:47.649Z,68.68
2023-01-19T08:17:15.633Z,68.76
2023-01-19T08:19:43.956Z,69.02
2023-01-19T08:22:13.324Z,69.17
2023-01-19T08:24:41.263Z,69.60
2023-01-19T08:27:13.702Z,69.82
2023-01-19T08:29:41.751Z,69.26
2023-01-19T08:32:10.078Z,69.32
2023-01-19T08:34:38.140Z,69.19
2023-01-19T08:37:06.140Z,69.29
2023-01-19T08:39:36.273Z,69.10
2023-01-19T08:42:04.417Z,69.03
2023-01-19T08:44:32.383Z,68.72
2023-01-19T08:47:01.142Z,68.49
2023-01-19T08:49:32.370Z,68.07
2023-01-19T08:52:00.374Z,67.48
2023-01-19T08:54:28.328Z,67.74
2023-01-19T08:57:00.505Z,67.60
2023-01-19T08:59:28.494Z,67.25
2023-01-19T09:01:56.634Z,66.67
2023-01-19T09:04:25.615Z,67.15
2023-01-19T09:06:54.677Z,66.53
2023-01-19T09:09:22.652Z,65.80
2023-01-19T09:11:50.644Z,66.39
2023-01-19T09:14:20.039Z,66.24
2023-01-19T09:16:48.076Z,65.63
2023-01-19T09:19:16.042Z,64.91
2023-01-19T09:21:44.051Z,65.32
2023-01-19T09:24:11.993Z,66.65
2023-01-19T09:26:40.755Z,65.77
2023-01-19T09:29:08.750Z,66.37
2023-01-19T09:31:40.228Z,65.46
2023-01-19T09:34:08.265Z,67.04
2023-01-19T09:36:37.436Z,65.50
2023-01-19T09:39:05.839Z,64.50
2023-01-19T09:41:36.384Z,65.51
2023-01-19T09:44:05.847Z,66.05
2023-01-19T09:46:39.933Z,65.57
2023-01-19T09:49:14.538Z,65.98
2023-01-19T09:51:46.505Z,66.13
2023-01-19T09:54:17.187Z,65.46
2023-01-19T09:56:46.264Z,65.79
2023-01-19T09:59:21.967Z,65.70
2023-01-19T10:02:08.157Z,65.97
2023-01-19T10:04:41.475Z,65.98
2023-01-19T10:07:20.863Z,65.49
2023-01-19T10:10:18.255Z,64.75
2023-01-19T10:12:56.995Z,65.61
2023-01-19T10:15:35.571Z,65.55
2023-01-19T10:18:21.481Z,65.66
2023-01-19T10:20:51.439Z,65.09
2023-01-19T10:23:32.770Z,66.54
2023-01-19T10:26:05.881Z,66.02
2023-01-19T10:28:34.822Z,66.08
2023-01-19T10:31:05.052Z,65.25
2023-01-19T10:33:35.289Z,65.71
2023-01-19T10:36:06.018Z,66.21
2023-01-19T10:38:35.843Z,66.61
2023-01-19T10:41:08.762Z,66.14
2023-01-19T10:43:41.928Z,65.82
2023-01-19T10:46:21.442Z,65.54
2023-01-19T10:48:52.683Z,64.38
2023-01-19T10:51:21.410Z,64.89
2023-01-19T10:54:01.486Z,64.72
2023-01-19T10:56:33.196Z,65.07
2023-01-19T10:59:03.313Z,63.64
2023-01-19T11:01:36.002Z,63.81
2023-01-19T11:04:21.963Z,63.75
2023-01-19T11:06:50.124Z,63.75
2023-01-19T11:09:20.021Z,62.89
2023-01-19T11:11:50.951Z,61.95
2023-01-19T11:14:21.078Z,61.92
2023-01-19T11:16:52.875Z,61.38
2023-01-19T11:19:28.983Z,62.02
2023-01-19T11:22:11.935Z,62.54
2023-01-19T11:24:40.701Z,62.29
2023-01-19T11:27:08.773Z,61.59
2023-01-19T11:29:38.997Z,61.96
2023-01-19T11:32:20.648Z,62.17
2023-01-19T11:34:50.704Z,61.90
2023-01-19T11:37:30.773Z,61.35
2023-01-19T11:40:00.436Z,62.03
2023-01-19T11:42:32.449Z,61.68
2023-01-19T11:45:05.316Z,62.37
2023-01-19T11:47:42.542Z,61.91
2023-01-19T11:50:22.564Z,62.37
2023-01-19T11:52:56.571Z,62.19
2023-01-19T11:55:34.123Z,62.25
2023-01-19T11:58:04.759Z,63.20
2023-01-19T12:00:38.212Z,63.25
2023-01-19T12:03:14.430Z,64.03
2023-01-19T12:05:48.396Z,62.60
2023-01-19T12:08:21.602Z,62.37
2023-01-19T12:10:52.981Z,61.58
2023-01-19T12:13:23.868Z,61.22
2023-01-19T12:15:57.915Z,61.28
2023-01-19T12:18:29.384Z,61.36
2023-01-19T12:21:01.346Z,61.14
2023-01-19T12:23:49.657Z,60.28
2023-01-19T12:26:29.302Z,60.71
2023-01-19T12:29:01.443Z,61.05
2023-01-19T12:31:29.784Z,60.02
2023-01-19T12:34:31.367Z,61.11
2023-01-19T12:37:04.567Z,60.60
2023-01-19T12:39:35.436Z,60.15
2023-01-19T12:42:13.189Z,60.95
2023-01-19T12:44:42.788Z,60.28
2023-01-19T12:47:24.487Z,60.24
2023-01-19T12:49:58.615Z,60.09
2023-01-19T12:52:34.587Z,58.58
2023-01-19T12:55:08.062Z,59.75
2023-01-19T12:57:39.819Z,60.08
2023-01-19T13:00:28.775Z,60.17
2023-01-19T13:02:58.227Z,59.60
2023-01-19T13:05:53.596Z,59.50
2023-01-19T13:08:24.371Z,59.47
2023-01-19T13:11:26.020Z,59.77
2023-01-19T13:14:36.183Z,59.40
2023-01-19T13:17:27.563Z,57.82
2023-01-19T13:20:24.403Z,58.44
2023-01-19T13:23:17.519Z,58.95
2023-01-19T13:25:50.107Z,58.85
2023-01-19T13:28:20.553Z,58.83
2023-01-19T13:30:57.000Z,59.21
2023-01-19T13:33:28.057Z,58.59
2023-01-19T13:35:58.948Z,58.18
2023-01-19T13:38:32.923Z,57.96
2023-01-19T13:41:04.346Z,57.91
2023-01-19T13:43:38.568Z,59.44
2023-01-19T13:46:07.390Z,57.12
2023-01-19T13:48:35.668Z,56.84
2023-01-19T13:51:05.571Z,58.18
2023-01-19T13:53:36.596Z,58.98
2023-01-19T13:56:18.619Z,58.63
2023-01-19T13:59:04.959Z,59.25
2023-01-19T14:01:33.282Z,58.15
2023-01-19T14:04:01.408Z,58.46
2023-01-19T14:06:35.971Z,58.66
2023-01-19T14:09:18.293Z,58.66
2023-01-19T14:11:48.314Z,59.39
2023-01-19T14:14:37.613Z,59.22
2023-01-19T14:17:06.154Z,59.55
2023-01-19T14:19:49.403Z,60.05
2023-01-19T14:22:17.413Z,59.50
2023-01-19T14:24:46.876Z,59.71
2023-01-19T14:27:24.454Z,59.44
2023-01-19T14:29:54.810Z,59.69
2023-01-19T14:32:24.302Z,59.43
2023-01-19T14:34:54.525Z,60.38
2023-01-19T14:37:25.604Z,60.46
2023-01-19T14:40:04.548Z,60.81
2023-01-19T14:42:36.989Z,61.28
2023-01-19T14:45:09.287Z,61.78
2023-01-19T14:47:40.010Z,61.74
2023-01-19T14:50:18.784Z,62.16
2023-01-19T14:52:53.737Z,61.64
2023-01-19T14:55:28.032Z,61.50
2023-01-19T14:57:56.195Z,61.34
2023-01-19T15:00:24.785Z,61.39
2023-01-19T15:02:52.956Z,61.24
2023-01-19T15:05:21.308Z,61.55
2023-01-19T15:07:49.445Z,61.59
2023-01-19T15:10:21.612Z,61.39
2023-01-19T15:12:52.525Z,62.37
2023-01-19T15:15:25.871Z,62.31
2023-01-19T15:17:56.272Z,62.80
2023-01-19T15:20:24.882Z,62.43
2023-01-19T15:22:52.975Z,63.24
2023-01-19T15:25:25.848Z,63.85
2023-01-19T15:27:59.830Z,63.41
2023-01-19T15:30:31.147Z,63.49
2023-01-19T15:32:59.248Z,63.50
2023-01-19T15:35:27.231Z,63.35
2023-01-19T15:37:55.275Z,63.91
2023-01-19T15:40:23.501Z,63.72
2023-01-19T15:42:51.969Z,64.10
2023-01-19T15:45:34.873Z,64.23
2023-01-19T15:48:04.997Z,64.00
2023-01-19T15:50:33.424Z,63.50
2023-01-19T15:53:01.489Z,63.40
2023-01-19T15:55:29.574Z,63.42
2023-01-19T15:58:01.682Z,63.09
2023-01-19T16:00:32.941Z,63.64
2023-01-19T16:03:02.580Z,63.28
2023-01-19T16:05:42.588Z,62.96
2023-01-19T16:08:11.667Z,63.91
2023-01-19T16:10:40.050Z,63.91
2023-01-19T16:13:08.139Z,63.60
2023-01-19T16:15:38.096Z,63.62
2023-01-19T16:18:06.760Z,64.07
2023-01-19T16:20:34.886Z,64.07
2023-01-19T16:23:14.986Z,63.78
2023-01-19T16:25:43.463Z,63.68
2023-01-19T16:28:11.466Z,63.57
2023-01-19T16:30:40.882Z,64.64
2023-01-19T16:33:11.696Z,64.29
2023-01-19T16:35:39.725Z,64.41
2023-01-19T16:38:09.502Z,63.67
2023-01-19T16:40:37.805Z,63.03
2023-01-19T16:43:05.820Z,63.91
2023-01-19T16:45:33.944Z,62.87
2023-01-19T16:48:03.393Z,63.39
2023-01-19T16:50:31.325Z,63.00
2023-01-19T16:52:59.323Z,62.88
2023-01-19T16:55:27.317Z,63.08
2023-01-19T16:57:56.605Z,62.89
2023-01-19T17:00:24.837Z,63.64
2023-01-19T17:02:55.709Z,63.95
2023-01-19T17:05:25.357Z,63.65
2023-01-19T17:07:53.487Z,63.42
2023-01-19T17:10:21.481Z,63.07
2023-01-19T17:12:49.447Z,62.86
2023-01-19T17:15:17.593Z,64.05
2023-01-19T17:17:45.606Z,62.74
2023-01-19T17:20:14.540Z,62.86
2023-01-19T17:22:44.855Z,63.13
2023-01-19T17:25:13.017Z,62.34
2023-01-19T17:27:40.952Z,61.69
2023-01-19T17:30:10.537Z,61.47
2023-01-19T17:32:38.614Z,61.36
2023-01-19T17:35:07.269Z,61.49
2023-01-19T17:37:35.560Z,61.90
2023-01-19T17:40:05.513Z,62.59
2023-01-19T17:43:00.536Z,63.60
2023-01-19T17:45:28.743Z,64.55
2023-01-19T17:47:56.881Z,64.32
2023-01-19T17:50:24.825Z,64.78
2023-01-19T17:52:52.816Z,64.51
2023-01-19T17:55:20.777Z,64.85
2023-01-19T17:57:51.258Z,65.36
2023-01-19T18:00:21.593Z,65.85
2023-01-19T18:02:51.023Z,65.87
2023-01-19T18:05:19.310Z,66.57
2023-01-19T18:07:47.372Z,65.91
2023-01-19T18:10:16.116Z,66.48
2023-01-19T18:12:45.261Z,66.25
2023-01-19T18:15:16.012Z,65.46
2023-01-19T18:17:46.159Z,65.30
2023-01-19T18:20:14.392Z,65.58
2023-01-19T18:22:42.583Z,64.60
2023-01-19T18:25:10.830Z,63.90
2023-01-19T18:27:38.827Z,64.60
2023-01-19T18:30:07.958Z,65.96
2023-01-19T18:32:36.031Z,65.33
2023-01-19T18:35:06.192Z,66.09
2023-01-19T18:37:34.122Z,66.64
2023-01-19T18:40:04.337Z,67.54
2023-01-19T18:42:35.229Z,67.79
2023-01-19T18:45:03.268Z,68.08
2023-01-19T18:47:31.292Z,69.92
2023-01-19T18:49:59.267Z,71.02
2023-01-19T18:52:29.145Z,71.56
2023-01-19T18:54:57.093Z,71.16
2023-01-19T18:57:25.064Z,70.86
2023-01-19T18:59:52.980Z,72.21
2023-01-19T19:02:21.115Z,71.71
2023-01-19T19:04:49.055Z,71.81
2023-01-19T19:07:16.981Z,72.53
2023-01-19T19:09:46.482Z,72.55
2023-01-19T19:12:14.457Z,73.39
2023-01-19T19:14:43.720Z,74.28
2023-01-19T19:17:11.956Z,74.79
2023-01-19T19:19:39.937Z,74.71
2023-01-19T19:22:07.980Z,75.48
2023-01-19T19:24:36.244Z,77.38
2023-01-19T19:27:05.724Z,78.52
2023-01-19T19:29:35.091Z,79.12
2023-01-19T19:32:03.072Z,78.96
2023-01-19T19:34:31.067Z,79.68
2023-01-19T19:37:01.107Z,79.04
2023-01-19T19:39:29.491Z,79.77
2023-01-19T19:41:57.601Z,79.45
2023-01-19T19:44:27.189Z,79.83
2023-01-19T19:46:55.235Z,80.29
2023-01-19T19:49:27.417Z,80.17
2023-01-19T19:51:56.077Z,80.62
2023-01-19T19:54:24.164Z,81.15
2023-01-19T19:56:53.832Z,80.88
2023-01-19T19:59:22.030Z,80.76
2023-01-19T20:01:54.882Z,81.13
2023-01-19T20:04:25.506Z,80.67
2023-01-19T20:06:56.030Z,80.63
2023-01-19T20:09:24.028Z,80.71
2023-01-19T20:11:54.875Z,80.96
2023-01-19T20:14:24.094Z,81.61
2023-01-19T20:16:54.532Z,81.63
2023-01-19T20:19:22.599Z,81.26
2023-01-19T20:21:50.576Z,80.70
2023-01-19T20:24:20.670Z,81.31
2023-01-19T20:26:51.172Z,81.96
2023-01-19T20:29:21.035Z,82.75
2023-01-19T20:31:52.064Z,82.13
2023-01-19T20:34:24.848Z,81.93
2023-01-19T20:36:54.001Z,81.97
2023-01-19T20:39:23.789Z,82.51
2023-01-19T20:41:52.660Z,82.80
2023-01-19T20:44:23.041Z,82.81
2023-01-19T20:46:51.780Z,82.95
2023-01-19T20:49:21.703Z,82.59
2023-01-19T20:51:51.979Z,82.40
2023-01-19T20:54:23.126Z,81.60
2023-01-19T20:56:51.541Z,81.92
2023-01-19T20:59:20.010Z,81.03
2023-01-19T21:01:48.606Z,81.18
2023-01-19T21:04:19.649Z,80.94
2023-01-19T21:06:49.327Z,80.88
2023-01-19T21:09:18.622Z,81.23
2023-01-19T21:11:46.818Z,81.24
2023-01-19T21:14:15.030Z,80.47
2023-01-19T21:16:43.753Z,80.84
2023-01-19T21:19:11.980Z,79.53
2023-01-19T21:21:40.208Z,79.34
2023-01-19T21:24:11.459Z,79.18
2023-01-19T21:26:41.696Z,78.56
2023-01-19T21:29:14.140Z,77.80
2023-01-19T21:31:42.884Z,77.90
2023-01-19T21:34:11.285Z,77.55
2023-01-19T21:36:39.236Z,78.41
2023-01-19T21:39:08.230Z,77.74
2023-01-19T21:41:39.863Z,76.76
2023-01-19T21:44:07.938Z,77.27
2023-01-19T21:46:35.899Z,77.18
2023-01-19T21:49:05.576Z,75.93
2023-01-19T21:51:35.942Z,75.78
2023-01-19T21:54:05.540Z,75.91
2023-01-19T21:56:34.429Z,74.93
2023-01-19T21:59:04.256Z,75.56
2023-01-19T22:01:32.940Z,74.91
2023-01-19T22:04:01.091Z,75.25
2023-01-19T22:06:29.570Z,75.71
2023-01-19T22:08:58.464Z,75.06
2023-01-19T22:11:26.729Z,74.67
2023-01-19T22:13:55.504Z,73.61
2023-01-19T22:16:24.849Z,73.40
2023-01-19T22:18:56.305Z,72.40
2023-01-19T22:21:26.534Z,72.19
2023-01-19T22:23:56.022Z,73.12
2023-01-19T22:26:24.676Z,72.90
2023-01-19T22:28:55.411Z,72.12
2023-01-19T22:31:29.050Z,72.63
2023-01-19T22:33:57.591Z,72.45
2023-01-19T22:36:27.282Z,72.93
2023-01-19T22:38:56.521Z,72.29
2023-01-19T22:41:26.829Z,72.01
2023-01-19T22:43:56.952Z,72.40
2023-01-19T22:46:28.420Z,72.52
2023-01-19T22:48:57.245Z,72.14
2023-01-19T22:51:26.354Z,71.20
2023-01-19T22:53:54.314Z,71.29
2023-01-19T22:56:26.216Z,71.11
2023-01-19T22:58:54.728Z,70.82
2023-01-19T23:01:24.749Z,71.56
2023-01-19T23:03:58.221Z,70.90
2023-01-19T23:06:28.050Z,70.67
2023-01-19T23:08:57.258Z,70.24
2023-01-19T23:11:27.142Z,69.67
2023-01-19T23:13:55.606Z,70.30
2023-01-19T23:16:23.551Z,70.51
2023-01-19T23:18:54.349Z,71.32
2023-01-19T23:21:25.998Z,70.82
2023-01-19T23:23:55.588Z,70.93
2023-01-19T23:26:24.648Z,70.24
2023-01-19T23:28:56.691Z,70.36
2023-01-19T23:31:26.909Z,71.41
2023-01-19T23:33:56.644Z,71.21
2023-01-19T23:36:28.773Z,71.75
2023-01-19T23:38:59.222Z,70.70
2023-01-19T23:41:28.919Z,71.00
2023-01-19T23:43:56.930Z,69.82
2023-01-19T23:46:25.012Z,69.76
2023-01-19T23:48:53.471Z,70.38
2023-01-19T23:51:23.470Z,69.96
2023-01-19T23:53:53.395Z,69.81
2023-01-19T23:56:24.266Z,69.59
2023-01-19T23:58:55.443Z,69.78
